createdAt,value
2022-08-02T00:01:19.322Z,20.90
2022-08-02T00:03:46.290Z,20.90
2022-08-02T00:06:13.212Z,20.90
2022-08-02T00:08:40.210Z,20.80
2022-08-02T00:11:07.085Z,20.90
2022-08-02T00:13:33.994Z,20.80
2022-08-02T00:16:00.918Z,20.80
2022-08-02T00:18:27.817Z,20.80
2022-08-02T00:20:54.689Z,20.80
2022-08-02T00:23:21.664Z,20.80
2022-08-02T00:25:55.526Z,20.70
2022-08-02T00:28:27.850Z,20.80
2022-08-02T00:30:59.561Z,20.70
2022-08-02T00:34:26.599Z,20.70
2022-08-02T00:36:13.815Z,20.70
2022-08-02T00:38:40.932Z,20.70
2022-08-02T00:41:15.048Z,20.70
2022-08-02T00:43:42.235Z,20.60
2022-08-02T00:46:09.308Z,20.70
2022-08-02T00:48:36.234Z,20.70
2022-08-02T00:51:08.387Z,20.70
2022-08-02T00:53:35.286Z,20.60
2022-08-02T00:56:02.229Z,20.60
2022-08-02T00:58:29.147Z,20.70
2022-08-02T01:01:00.937Z,20.70
2022-08-02T01:03:28.055Z,20.60
2022-08-02T01:06:10.278Z,20.60
2022-08-02T01:08:40.772Z,20.60
2022-08-02T01:11:07.849Z,20.50
2022-08-02T01:13:34.764Z,20.50
2022-08-02T01:16:07.789Z,20.50
2022-08-02T01:18:46.051Z,20.40
2022-08-02T01:21:29.197Z,20.40
2022-08-02T01:24:24.843Z,20.40
2022-08-02T01:27:32.385Z,20.40
2022-08-02T01:29:59.682Z,20.40
2022-08-02T01:32:29.754Z,20.40
2022-08-02T01:34:57.542Z,20.30
2022-08-02T01:37:44.509Z,20.30
2022-08-02T01:40:13.308Z,20.30
2022-08-02T01:42:43.517Z,20.30
2022-08-02T01:45:11.386Z,20.30
2022-08-02T01:47:39.580Z,20.30
2022-08-02T01:50:07.409Z,20.30
2022-08-02T01:52:35.967Z,20.30
2022-08-02T01:55:21.095Z,20.20
2022-08-02T01:57:52.563Z,20.20
2022-08-02T02:00:21.956Z,20.20
2022-08-02T02:02:49.944Z,20.20
2022-08-02T02:05:19.496Z,20.20
2022-08-02T02:07:48.684Z,20.10
2022-08-02T02:10:17.299Z,20.10
2022-08-02T02:12:47.133Z,20.10
2022-08-02T02:15:14.132Z,20.00
2022-08-02T02:18:11.774Z,20.00
2022-08-02T02:20:33.419Z,20.00
2022-08-02T02:23:00.252Z,19.90
2022-08-02T02:25:35.806Z,19.90
2022-08-02T02:28:07.065Z,19.90
2022-08-02T02:30:34.125Z,19.80
2022-08-02T02:33:02.183Z,19.80
2022-08-02T02:35:30.706Z,19.80
2022-08-02T02:37:58.726Z,19.80
2022-08-02T02:40:25.584Z,19.80
2022-08-02T02:42:52.462Z,19.90
2022-08-02T02:45:19.526Z,19.90
2022-08-02T02:47:46.538Z,19.90
2022-08-02T02:50:13.466Z,19.90
2022-08-02T02:52:40.420Z,19.90
2022-08-02T02:55:08.331Z,19.80
2022-08-02T02:57:36.064Z,19.80
2022-08-02T03:00:05.355Z,19.80
2022-08-02T03:02:32.197Z,19.80
2022-08-02T03:05:01.546Z,19.80
2022-08-02T03:07:28.409Z,19.80
2022-08-02T03:09:55.477Z,19.80
2022-08-02T03:12:31.258Z,19.80
2022-08-02T03:15:00.406Z,19.70
2022-08-02T03:17:40.916Z,19.70
2022-08-02T03:20:13.489Z,19.70
2022-08-02T03:22:40.688Z,19.70
2022-08-02T03:25:08.957Z,19.70
2022-08-02T03:27:36.049Z,19.70
2022-08-02T03:30:03.135Z,19.70
2022-08-02T03:32:30.029Z,19.70
2022-08-02T03:34:56.929Z,19.60
2022-08-02T03:37:23.917Z,19.60
2022-08-02T03:39:53.178Z,19.50
2022-08-02T03:42:21.050Z,19.60
2022-08-02T03:44:48.969Z,19.50
2022-08-02T03:47:15.862Z,19.50
2022-08-02T03:49:43.341Z,19.40
2022-08-02T03:52:10.534Z,19.40
2022-08-02T03:54:45.857Z,19.30
2022-08-02T03:57:13.200Z,19.30
2022-08-02T03:59:41.960Z,19.20
2022-08-02T04:02:09.192Z,19.20
2022-08-02T04:04:36.331Z,19.20
2022-08-02T04:07:03.608Z,19.10
2022-08-02T04:09:34.563Z,19.10
2022-08-02T04:12:01.449Z,19.10
2022-08-02T04:14:28.363Z,19.10
2022-08-02T04:16:59.932Z,19.00
2022-08-02T04:19:28.480Z,19.00
2022-08-02T04:21:55.404Z,19.00
2022-08-02T04:24:32.113Z,18.90
2022-08-02T04:27:19.156Z,18.90
2022-08-02T04:29:47.181Z,18.90
2022-08-02T04:32:14.892Z,18.90
2022-08-02T04:34:47.454Z,18.90
2022-08-02T04:37:21.338Z,18.90
2022-08-02T04:39:48.181Z,18.90
2022-08-02T04:42:22.152Z,18.90
2022-08-02T04:44:49.288Z,18.90
2022-08-02T04:47:16.210Z,18.90
2022-08-02T04:49:43.154Z,18.80
2022-08-02T04:52:10.299Z,18.90
2022-08-02T04:54:37.580Z,18.90
2022-08-02T04:57:24.638Z,18.90
2022-08-02T04:59:54.629Z,18.90
2022-08-02T05:02:21.700Z,19.00
2022-08-02T05:04:48.551Z,18.90
2022-08-02T05:07:15.890Z,19.00
2022-08-02T05:09:42.776Z,19.00
2022-08-02T05:12:10.177Z,19.00
2022-08-02T05:14:37.393Z,19.00
2022-08-02T05:17:04.372Z,19.10
2022-08-02T05:19:31.322Z,19.10
2022-08-02T05:21:58.230Z,19.10
2022-08-02T05:24:25.082Z,19.10
2022-08-02T05:26:52.066Z,19.20
2022-08-02T05:29:19.076Z,19.20
2022-08-02T05:31:47.076Z,19.30
2022-08-02T05:34:13.927Z,19.30
2022-08-02T05:36:42.257Z,19.30
2022-08-02T05:39:11.522Z,19.40
2022-08-02T05:41:41.918Z,19.40
2022-08-02T05:44:08.762Z,19.50
2022-08-02T05:46:35.620Z,19.50
2022-08-02T05:49:04.410Z,19.50
2022-08-02T05:51:45.688Z,19.50
2022-08-02T05:54:20.365Z,19.60
2022-08-02T05:57:11.923Z,19.70
2022-08-02T05:59:51.598Z,19.80
2022-08-02T06:02:30.666Z,19.80
2022-08-02T06:05:17.548Z,19.90
2022-08-02T06:07:45.532Z,20.00
2022-08-02T06:10:13.498Z,20.10
2022-08-02T06:13:23.555Z,20.20
2022-08-02T06:15:53.117Z,20.30
2022-08-02T06:18:28.533Z,20.40
2022-08-02T06:20:58.712Z,20.50
2022-08-02T06:23:57.439Z,20.60
2022-08-02T06:26:26.413Z,20.70
2022-08-02T06:28:54.160Z,20.80
2022-08-02T06:31:21.143Z,20.80
2022-08-02T06:33:48.077Z,20.90
2022-08-02T06:36:27.517Z,20.90
2022-08-02T06:39:08.564Z,21.00
2022-08-02T06:41:40.683Z,21.00
2022-08-02T06:44:46.000Z,21.10
2022-08-02T06:47:11.405Z,21.20
2022-08-02T06:49:52.064Z,21.20
2022-08-02T06:52:30.130Z,21.30
2022-08-02T06:55:01.255Z,21.30
2022-08-02T06:57:28.461Z,21.40
2022-08-02T06:59:55.439Z,21.50
2022-08-02T07:02:22.493Z,21.60
2022-08-02T07:04:49.404Z,21.70
2022-08-02T07:07:16.317Z,21.70
2022-08-02T07:09:56.620Z,21.80
2022-08-02T07:12:29.135Z,21.90
2022-08-02T07:14:56.087Z,21.90
2022-08-02T07:17:23.039Z,22.00
2022-08-02T07:19:49.924Z,22.00
2022-08-02T07:22:18.713Z,22.10
2022-08-02T07:24:45.606Z,22.10
2022-08-02T07:27:13.114Z,22.20
2022-08-02T07:29:46.793Z,22.30
2022-08-02T07:32:21.463Z,22.30
2022-08-02T07:34:51.294Z,22.40
2022-08-02T07:37:53.575Z,22.50
2022-08-02T07:40:14.852Z,22.60
2022-08-02T07:42:45.424Z,22.60
2022-08-02T07:45:12.653Z,22.70
2022-08-02T07:47:40.035Z,22.80
2022-08-02T07:50:07.660Z,22.80
2022-08-02T07:52:34.708Z,22.90
2022-08-02T07:55:01.641Z,22.90
2022-08-02T07:57:28.486Z,23.00
2022-08-02T07:59:55.392Z,23.00
2022-08-02T08:02:24.617Z,23.00
2022-08-02T08:04:51.995Z,22.90
2022-08-02T08:07:18.855Z,23.00
2022-08-02T08:09:47.387Z,23.00
2022-08-02T08:12:16.342Z,23.00
2022-08-02T08:14:43.842Z,23.00
2022-08-02T08:17:10.826Z,23.10
2022-08-02T08:19:51.412Z,23.10
2022-08-02T08:22:20.309Z,23.20
2022-08-02T08:24:48.262Z,23.20
2022-08-02T08:27:15.915Z,23.30
2022-08-02T08:29:43.280Z,23.30
2022-08-02T08:32:15.689Z,23.30
2022-08-02T08:34:43.357Z,23.50
2022-08-02T08:37:10.307Z,23.80
2022-08-02T08:39:57.534Z,23.90
2022-08-02T08:42:29.753Z,24.00
2022-08-02T08:44:57.664Z,24.20
2022-08-02T08:47:34.859Z,24.40
2022-08-02T08:50:07.028Z,24.50
2022-08-02T08:52:48.832Z,24.40
2022-08-02T08:55:16.136Z,24.30
2022-08-02T08:57:43.313Z,24.30
2022-08-02T09:00:12.841Z,24.40
2022-08-02T09:02:41.995Z,24.50
2022-08-02T09:05:10.536Z,24.60
2022-08-02T09:07:37.609Z,24.70
2022-08-02T09:10:36.093Z,24.70
2022-08-02T09:13:38.473Z,24.60
2022-08-02T09:16:13.009Z,24.70
2022-08-02T09:18:46.162Z,24.80
2022-08-02T09:21:15.057Z,24.70
2022-08-02T09:23:49.194Z,24.70
2022-08-02T09:26:18.099Z,24.80
2022-08-02T09:28:46.874Z,24.90
2022-08-02T09:31:20.546Z,24.90
2022-08-02T09:33:57.258Z,24.90
2022-08-02T09:36:24.495Z,24.90
2022-08-02T09:38:55.648Z,24.80
2022-08-02T09:41:26.798Z,24.60
2022-08-02T09:44:05.148Z,24.60
2022-08-02T09:46:38.571Z,24.50
2022-08-02T09:49:08.364Z,24.50
2022-08-02T09:51:47.501Z,24.60
2022-08-02T09:54:28.690Z,24.70
2022-08-02T09:57:00.232Z,24.70
2022-08-02T09:59:28.107Z,24.80
2022-08-02T10:01:58.948Z,24.90
2022-08-02T10:04:30.802Z,25.00
2022-08-02T10:06:59.678Z,25.20
2022-08-02T10:09:28.662Z,25.40
2022-08-02T10:11:55.654Z,25.60
2022-08-02T10:14:23.462Z,25.60
2022-08-02T10:16:50.525Z,25.50
2022-08-02T10:19:17.558Z,25.60
2022-08-02T10:22:11.824Z,25.60
2022-08-02T10:24:42.858Z,25.80
2022-08-02T10:27:17.464Z,25.90
2022-08-02T10:29:55.086Z,26.00
2022-08-02T10:32:29.986Z,26.00
2022-08-02T10:35:19.892Z,25.90
2022-08-02T10:38:01.407Z,25.70
2022-08-02T10:40:48.609Z,25.60
2022-08-02T10:43:34.155Z,25.60
2022-08-02T10:46:23.367Z,25.60
2022-08-02T10:49:38.159Z,25.50
2022-08-02T10:52:03.335Z,25.60
2022-08-02T10:54:35.958Z,25.70
2022-08-02T10:57:03.204Z,25.80
2022-08-02T10:59:30.892Z,25.90
2022-08-02T11:02:05.082Z,25.90
2022-08-02T11:04:53.540Z,25.90
2022-08-02T11:07:23.310Z,25.80
2022-08-02T11:09:50.570Z,25.80
2022-08-02T11:12:18.913Z,25.80
2022-08-02T11:14:59.054Z,25.80
2022-08-02T11:17:28.917Z,25.90
2022-08-02T11:20:11.063Z,25.90
2022-08-02T11:22:42.357Z,25.90
2022-08-02T11:25:24.599Z,25.80
2022-08-02T11:27:59.723Z,25.80
2022-08-02T11:30:27.250Z,25.80
2022-08-02T11:32:57.981Z,25.90
2022-08-02T11:35:35.446Z,26.00
2022-08-02T11:38:16.209Z,26.00
2022-08-02T11:40:45.159Z,26.00
2022-08-02T11:43:22.797Z,25.90
2022-08-02T11:45:51.013Z,26.00
2022-08-02T11:48:30.560Z,26.10
2022-08-02T11:51:10.470Z,26.10
2022-08-02T11:53:50.676Z,26.00
2022-08-02T11:56:25.008Z,26.10
2022-08-02T11:59:21.914Z,26.20
2022-08-02T12:01:48.869Z,26.30
2022-08-02T12:04:22.497Z,26.50
2022-08-02T12:06:57.328Z,26.70
2022-08-02T12:09:25.085Z,26.90
2022-08-02T12:11:52.022Z,27.00
2022-08-02T12:14:19.220Z,27.20
2022-08-02T12:17:05.151Z,27.30
2022-08-02T12:19:32.082Z,27.20
2022-08-02T12:22:08.988Z,27.10
2022-08-02T12:24:36.377Z,26.90
2022-08-02T12:27:03.275Z,26.70
2022-08-02T12:29:59.220Z,26.50
2022-08-02T12:32:26.834Z,26.50
2022-08-02T12:35:09.864Z,26.80
2022-08-02T12:37:40.926Z,27.10
2022-08-02T12:40:25.145Z,27.40
2022-08-02T12:42:58.451Z,27.60
2022-08-02T12:45:26.272Z,28.00
2022-08-02T12:47:55.642Z,28.50
2022-08-02T12:50:31.442Z,29.00
2022-08-02T12:53:06.212Z,29.80
2022-08-02T12:56:00.012Z,30.10
2022-08-02T12:58:22.780Z,29.80
2022-08-02T13:00:57.142Z,29.80
2022-08-02T13:04:10.773Z,30.00
2022-08-02T13:06:40.642Z,30.50
2022-08-02T13:09:00.690Z,30.40
2022-08-02T13:11:27.684Z,30.10
2022-08-02T13:13:54.726Z,30.10
2022-08-02T13:16:30.916Z,30.10
2022-08-02T13:18:58.854Z,30.00
2022-08-02T13:21:39.829Z,29.80
2022-08-02T13:24:38.842Z,29.80
2022-08-02T13:26:55.101Z,29.70
2022-08-02T13:29:22.047Z,29.50
2022-08-02T13:31:49.088Z,29.50
2022-08-02T13:34:16.638Z,30.20
2022-08-02T13:36:43.608Z,32.10
2022-08-02T13:39:11.943Z,34.10
2022-08-02T13:41:38.930Z,35.40
2022-08-02T13:44:10.325Z,36.50
2022-08-02T13:46:45.288Z,37.40
2022-08-02T13:49:19.314Z,38.20
2022-08-02T13:51:47.851Z,39.10
2022-08-02T13:54:15.514Z,40.00
2022-08-02T13:56:42.523Z,40.50
2022-08-02T13:59:55.342Z,40.50
2022-08-02T14:01:57.178Z,39.60
2022-08-02T14:04:24.287Z,38.00
2022-08-02T14:06:51.399Z,36.90
2022-08-02T14:09:18.325Z,35.80
2022-08-02T14:11:46.065Z,34.70
2022-08-02T14:14:15.863Z,33.50
2022-08-02T14:16:45.142Z,32.50
2022-08-02T14:19:15.978Z,31.90
2022-08-02T14:21:50.796Z,31.40
2022-08-02T14:24:19.311Z,31.30
2022-08-02T14:26:46.585Z,31.50
2022-08-02T14:29:14.268Z,31.80
2022-08-02T14:31:44.259Z,31.80
2022-08-02T14:34:15.198Z,31.60
2022-08-02T14:36:42.158Z,31.30
2022-08-02T14:39:09.190Z,30.80
2022-08-02T14:41:59.622Z,30.30
2022-08-02T14:44:24.310Z,30.10
2022-08-02T14:46:51.630Z,30.20
2022-08-02T14:49:26.062Z,30.40
2022-08-02T14:51:56.562Z,30.40
2022-08-02T14:54:30.390Z,30.10
2022-08-02T14:57:02.313Z,29.70
2022-08-02T14:59:29.726Z,29.10
2022-08-02T15:01:57.013Z,28.60
2022-08-02T15:04:24.059Z,28.20
2022-08-02T15:06:50.957Z,27.80
2022-08-02T15:09:17.900Z,27.50
2022-08-02T15:11:46.972Z,27.20
2022-08-02T15:14:22.385Z,27.10
2022-08-02T15:16:57.008Z,27.00
2022-08-02T15:19:28.725Z,27.20
2022-08-02T15:22:14.406Z,27.60
2022-08-02T15:24:43.980Z,27.90
2022-08-02T15:27:13.726Z,28.20
2022-08-02T15:29:41.096Z,28.70
2022-08-02T15:32:08.025Z,29.20
2022-08-02T15:34:34.966Z,29.40
2022-08-02T15:37:01.940Z,29.40
2022-08-02T15:39:28.832Z,29.40
2022-08-02T15:41:55.873Z,29.60
2022-08-02T15:44:22.870Z,29.90
2022-08-02T15:46:51.658Z,30.40
2022-08-02T15:49:20.704Z,30.80
2022-08-02T15:51:47.643Z,30.70
2022-08-02T15:54:14.507Z,30.10
2022-08-02T15:56:41.346Z,29.40
2022-08-02T15:59:08.278Z,28.80
2022-08-02T16:01:37.630Z,28.50
2022-08-02T16:04:06.717Z,28.50
2022-08-02T16:06:34.602Z,30.00
2022-08-02T16:09:01.526Z,32.40
2022-08-02T16:11:28.468Z,34.30
2022-08-02T16:13:55.495Z,34.70
2022-08-02T16:16:23.802Z,34.20
2022-08-02T16:18:50.837Z,33.10
2022-08-02T16:21:19.429Z,31.90
2022-08-02T16:23:59.262Z,30.80
2022-08-02T16:26:30.929Z,30.00
2022-08-02T16:28:57.946Z,29.40
2022-08-02T16:31:24.854Z,29.10
2022-08-02T16:33:56.047Z,29.00
2022-08-02T16:36:24.595Z,28.90
2022-08-02T16:38:52.132Z,29.30
2022-08-02T16:41:19.086Z,29.90
2022-08-02T16:43:46.079Z,29.90
2022-08-02T16:46:13.122Z,29.60
2022-08-02T16:48:40.176Z,29.90
2022-08-02T16:51:13.717Z,30.90
2022-08-02T16:54:00.537Z,32.20
2022-08-02T16:56:31.052Z,33.10
2022-08-02T16:59:00.087Z,33.00
2022-08-02T17:02:02.984Z,33.10
2022-08-02T17:04:15.656Z,32.40
2022-08-02T17:06:47.591Z,31.20
2022-08-02T17:10:02.062Z,30.20
2022-08-02T17:12:07.652Z,29.30
2022-08-02T17:14:55.137Z,28.60
2022-08-02T17:17:33.522Z,28.20
2022-08-02T17:20:01.159Z,28.00
2022-08-02T17:22:28.775Z,27.70
2022-08-02T17:24:56.104Z,27.30
2022-08-02T17:27:23.041Z,27.10
2022-08-02T17:29:49.957Z,27.00
2022-08-02T17:32:18.398Z,27.70
2022-08-02T17:34:48.814Z,28.90
2022-08-02T17:37:23.624Z,30.20
2022-08-02T17:42:37.535Z,31.70
2022-08-02T17:45:16.611Z,31.60
2022-08-02T17:48:04.631Z,31.10
2022-08-02T17:50:34.389Z,30.40
2022-08-02T17:53:01.924Z,29.80
2022-08-02T17:55:30.914Z,29.30
2022-08-02T17:57:59.392Z,28.80
2022-08-02T18:00:36.841Z,28.40
2022-08-02T18:03:06.242Z,28.00
2022-08-02T18:05:39.802Z,27.70
2022-08-02T18:08:23.214Z,27.40
2022-08-02T18:10:52.439Z,27.10
2022-08-02T18:13:19.481Z,26.70
2022-08-02T18:15:48.098Z,26.40
2022-08-02T18:18:16.970Z,26.10
2022-08-02T18:20:46.371Z,25.90
2022-08-02T18:23:13.735Z,25.70
2022-08-02T18:25:45.746Z,25.50
2022-08-02T18:28:15.125Z,25.30
2022-08-02T18:30:42.729Z,25.20
2022-08-02T18:33:58.051Z,25.10
2022-08-02T18:35:56.534Z,24.90
2022-08-02T18:38:26.749Z,24.80
2022-08-02T18:40:53.923Z,24.70
2022-08-02T18:43:25.412Z,24.50
2022-08-02T18:46:05.748Z,24.40
2022-08-02T18:49:15.131Z,24.30
2022-08-02T18:51:42.960Z,24.10
2022-08-02T18:54:09.979Z,24.00
2022-08-02T18:56:38.903Z,23.90
2022-08-02T18:59:07.367Z,23.80
2022-08-02T19:04:26.845Z,23.70
2022-08-02T19:06:55.366Z,23.70
2022-08-02T19:09:22.294Z,23.60
2022-08-02T19:11:50.175Z,23.50
2022-08-02T19:14:27.024Z,23.50
2022-08-02T19:16:59.531Z,23.40
2022-08-02T19:19:28.693Z,23.20
2022-08-02T19:22:18.453Z,23.20
2022-08-02T19:24:45.856Z,23.10
2022-08-02T19:27:14.674Z,23.00
2022-08-02T19:29:50.898Z,22.90
2022-08-02T19:32:40.092Z,22.80
2022-08-02T19:37:56.046Z,22.70
2022-08-02T19:40:27.641Z,22.60
2022-08-02T19:44:27.028Z,22.50
2022-08-02T19:45:49.751Z,22.40
2022-08-02T19:48:18.023Z,22.30
2022-08-02T19:50:53.537Z,22.30
2022-08-02T19:53:22.961Z,22.20
2022-08-02T19:56:00.796Z,22.10
2022-08-02T19:58:30.492Z,22.10
2022-08-02T20:00:58.204Z,22.00
2022-08-02T20:03:50.905Z,22.00
2022-08-02T20:06:13.637Z,21.90
2022-08-02T20:08:40.717Z,21.90
2022-08-02T20:11:23.356Z,21.80
2022-08-02T20:13:52.293Z,21.80
2022-08-02T20:16:28.109Z,21.70
2022-08-02T20:19:00.321Z,21.70
2022-08-02T20:21:36.469Z,21.60
2022-08-02T20:24:07.661Z,21.60
2022-08-02T20:26:35.226Z,21.50
2022-08-02T20:29:03.989Z,21.50
2022-08-02T20:31:31.271Z,21.40
2022-08-02T20:33:58.251Z,21.40
2022-08-02T20:36:26.613Z,21.30
2022-08-02T20:38:54.521Z,21.30
2022-08-02T20:41:22.973Z,21.30
2022-08-02T20:43:50.325Z,21.30
2022-08-02T20:46:17.388Z,21.20
2022-08-02T20:48:45.059Z,21.20
2022-08-02T20:51:12.736Z,21.10
2022-08-02T20:53:55.089Z,21.10
2022-08-02T20:56:23.621Z,21.10
2022-08-02T20:58:52.691Z,21.00
2022-08-02T21:01:21.082Z,20.90
2022-08-02T21:03:58.319Z,20.90
2022-08-02T21:06:28.157Z,20.90
2022-08-02T21:08:56.089Z,20.80
2022-08-02T21:14:10.671Z,20.80
2022-08-02T21:16:39.181Z,20.70
2022-08-02T21:19:09.682Z,20.70
2022-08-02T21:21:37.407Z,20.70
2022-08-02T21:24:04.889Z,20.60
2022-08-02T21:26:32.619Z,20.60
2022-08-02T21:29:03.816Z,20.60
2022-08-02T21:31:36.053Z,20.60
2022-08-02T21:34:22.049Z,20.50
2022-08-02T21:36:52.519Z,20.50
2022-08-02T21:39:20.540Z,20.40
2022-08-02T21:41:47.648Z,20.40
2022-08-02T21:44:16.367Z,20.30
2022-08-02T21:46:45.405Z,20.30
2022-08-02T21:49:14.028Z,20.30
2022-08-02T21:51:42.830Z,20.20
2022-08-02T21:54:17.541Z,20.30
2022-08-02T21:56:50.240Z,20.20
2022-08-02T21:59:25.513Z,20.20
2022-08-02T22:01:56.879Z,20.10
2022-08-02T22:04:25.855Z,20.10
2022-08-02T22:06:54.867Z,20.10
2022-08-02T22:09:44.380Z,20.10
2022-08-02T22:12:16.688Z,20.00
2022-08-02T22:14:53.783Z,20.00
2022-08-02T22:17:50.654Z,20.00
2022-08-02T22:20:15.578Z,19.90
2022-08-02T22:22:48.145Z,19.90
2022-08-02T22:25:27.231Z,19.80
2022-08-02T22:28:35.067Z,19.90
2022-08-02T22:30:56.875Z,19.80
2022-08-02T22:33:47.216Z,19.80
2022-08-02T22:36:28.054Z,19.70
2022-08-02T22:38:55.325Z,19.70
2022-08-02T22:41:22.558Z,19.70
2022-08-02T22:43:49.767Z,19.70
2022-08-02T22:46:16.906Z,19.60
2022-08-02T22:48:44.627Z,19.60
2022-08-02T22:51:13.407Z,19.60
2022-08-02T22:53:43.685Z,19.60
2022-08-02T22:56:10.682Z,19.50
2022-08-02T22:58:39.641Z,31.20
2022-08-02T22:58:46.604Z,23.70
2022-08-02T22:59:02.071Z,20.80
2022-08-02T22:59:07.384Z,22.80
2022-08-02T23:01:24.663Z,19.50
2022-08-02T23:03:51.552Z,19.50
2022-08-02T23:06:19.303Z,19.50
2022-08-02T23:08:49.838Z,19.40
2022-08-02T23:11:16.888Z,19.40
2022-08-02T23:13:43.759Z,19.40
2022-08-02T23:16:31.096Z,19.40
2022-08-02T23:19:16.625Z,19.40
2022-08-02T23:21:45.784Z,19.30
2022-08-02T23:24:30.401Z,19.30
2022-08-02T23:26:57.288Z,19.30
2022-08-02T23:29:24.244Z,19.30
2022-08-02T23:31:51.194Z,19.30
2022-08-02T23:34:19.814Z,19.20
2022-08-02T23:36:46.737Z,19.20
2022-08-02T23:39:13.621Z,19.20
2022-08-02T23:41:40.607Z,19.20
2022-08-02T23:44:15.344Z,19.10
2022-08-02T23:46:43.210Z,19.10
2022-08-02T23:49:10.741Z,19.10
2022-08-02T23:51:37.701Z,19.10
2022-08-02T23:54:04.734Z,19.10
2022-08-02T23:56:31.633Z,19.00
2022-08-02T23:58:58.526Z,19.00
